sensor_id;sensor_type;location;lat;lon;timestamp;P1;durP1;ratioP1;P2;durP2;ratioP2
10491;SDS011;5293;51.464;-2.566;2023-03-01T00:02:19;1.67;;;0.80;;
10491;SDS011;5293;51.464;-2.566;2023-03-01T00:04:45;0.70;;;0.70;;
10491;SDS011;5293;51.464;-2.566;2023-03-01T00:07:11;1.70;;;1.13;;
10491;SDS011;5293;51.464;-2.566;2023-03-01T00:09:37;3.50;;;0.80;;
10491;SDS011;5293;51.464;-2.566;2023-03-01T00:12:03;0.60;;;0.60;;
10491;SDS011;5293;51.464;-2.566;2023-03-01T00:14:29;0.50;;;0.50;;
10491;SDS011;5293;51.464;-2.566;2023-03-01T00:16:54;0.50;;;0.50;;
10491;SDS011;5293;51.464;-2.566;2023-03-01T00:19:20;1.60;;;0.93;;
10491;SDS011;5293;51.464;-2.566;2023-03-01T00:21:49;0.53;;;0.50;;
10491;SDS011;5293;51.464;-2.566;2023-03-01T00:24:15;0.87;;;0.40;;
10491;SDS011;5293;51.464;-2.566;2023-03-01T00:26:40;0.60;;;0.60;;
10491;SDS011;5293;51.464;-2.566;2023-03-01T00:29:06;0.93;;;0.70;;
10491;SDS011;5293;51.464;-2.566;2023-03-01T00:31:32;1.07;;;1.07;;
10491;SDS011;5293;51.464;-2.566;2023-03-01T00:33:59;0.50;;;0.50;;
10491;SDS011;5293;51.464;-2.566;2023-03-01T00:36:28;0.40;;;0.40;;
10491;SDS011;5293;51.464;-2.566;2023-03-01T00:38:55;0.43;;;0.43;;
10491;SDS011;5293;51.464;-2.566;2023-03-01T00:41:21;0.40;;;0.40;;
10491;SDS011;5293;51.464;-2.566;2023-03-01T00:43:47;0.50;;;0.50;;
10491;SDS011;5293;51.464;-2.566;2023-03-01T00:46:16;1.57;;;0.60;;
10491;SDS011;5293;51.464;-2.566;2023-03-01T00:48:43;0.50;;;0.50;;
10491;SDS011;5293;51.464;-2.566;2023-03-01T00:51:11;0.90;;;0.47;;
10491;SDS011;5293;51.464;-2.566;2023-03-01T00:53:39;0.50;;;0.50;;
10491;SDS011;5293;51.464;-2.566;2023-03-01T00:56:05;2.13;;;1.27;;
10491;SDS011;5293;51.464;-2.566;2023-03-01T00:58:32;1.20;;;0.83;;
10491;SDS011;5293;51.464;-2.566;2023-03-01T01:00:58;0.77;;;0.77;;
10491;SDS011;5293;51.464;-2.566;2023-03-01T01:03:24;1.40;;;1.30;;
10491;SDS011;5293;51.464;-2.566;2023-03-01T01:05:53;2.60;;;1.20;;
10491;SDS011;5293;51.464;-2.566;2023-03-01T01:08:19;1.47;;;1.37;;
10491;SDS011;5293;51.464;-2.566;2023-03-01T01:10:46;0.87;;;0.87;;
10491;SDS011;5293;51.464;-2.566;2023-03-01T01:13:12;0.80;;;0.80;;
10491;SDS011;5293;51.464;-2.566;2023-03-01T01:15:39;0.77;;;0.53;;
10491;SDS011;5293;51.464;-2.566;2023-03-01T01:18:04;0.60;;;0.60;;
10491;SDS011;5293;51.464;-2.566;2023-03-01T01:20:31;0.63;;;0.60;;
10491;SDS011;5293;51.464;-2.566;2023-03-01T01:22:57;0.50;;;0.40;;
10491;SDS011;5293;51.464;-2.566;2023-03-01T01:25:23;0.43;;;0.43;;
10491;SDS011;5293;51.464;-2.566;2023-03-01T01:27:51;2.17;;;0.60;;
10491;SDS011;5293;51.464;-2.566;2023-03-01T01:30:17;0.60;;;0.60;;
10491;SDS011;5293;51.464;-2.566;2023-03-01T01:32:43;0.63;;;0.37;;
10491;SDS011;5293;51.464;-2.566;2023-03-01T01:35:08;1.17;;;0.80;;
10491;SDS011;5293;51.464;-2.566;2023-03-01T01:37:34;0.73;;;0.60;;
10491;SDS011;5293;51.464;-2.566;2023-03-01T01:40:00;1.27;;;0.70;;
10491;SDS011;5293;51.464;-2.566;2023-03-01T01:42:29;0.60;;;0.60;;
10491;SDS011;5293;51.464;-2.566;2023-03-01T01:47:51;0.67;;;0.50;;
10491;SDS011;5293;51.464;-2.566;2023-03-01T01:50:17;1.80;;;0.73;;
10491;SDS011;5293;51.464;-2.566;2023-03-01T01:52:44;0.93;;;0.53;;
10491;SDS011;5293;51.464;-2.566;2023-03-01T01:55:14;1.70;;;0.80;;
10491;SDS011;5293;51.464;-2.566;2023-03-01T01:57:45;0.50;;;0.50;;
10491;SDS011;5293;51.464;-2.566;2023-03-01T02:00:15;0.50;;;0.50;;
10491;SDS011;5293;51.464;-2.566;2023-03-01T02:02:44;1.00;;;0.70;;
10491;SDS011;5293;51.464;-2.566;2023-03-01T02:08:03;0.60;;;0.50;;
10491;SDS011;5293;51.464;-2.566;2023-03-01T02:10:29;0.83;;;0.70;;
10491;SDS011;5293;51.464;-2.566;2023-03-01T02:12:59;2.23;;;0.60;;
10491;SDS011;5293;51.464;-2.566;2023-03-01T02:15:25;1.43;;;0.50;;
10491;SDS011;5293;51.464;-2.566;2023-03-01T02:17:52;0.70;;;0.47;;
10491;SDS011;5293;51.464;-2.566;2023-03-01T02:20:33;0.53;;;0.53;;
10491;SDS011;5293;51.464;-2.566;2023-03-01T02:23:08;1.27;;;0.87;;
10491;SDS011;5293;51.464;-2.566;2023-03-01T02:28:16;1.90;;;1.07;;
10491;SDS011;5293;51.464;-2.566;2023-03-01T02:30:43;2.47;;;1.13;;
10491;SDS011;5293;51.464;-2.566;2023-03-01T02:33:32;0.80;;;0.80;;
10491;SDS011;5293;51.464;-2.566;2023-03-01T02:36:01;1.10;;;1.00;;
10491;SDS011;5293;51.464;-2.566;2023-03-01T02:38:30;2.13;;;0.87;;
10491;SDS011;5293;51.464;-2.566;2023-03-01T02:40:56;1.07;;;0.97;;
10491;SDS011;5293;51.464;-2.566;2023-03-01T02:43:23;0.60;;;0.60;;
10491;SDS011;5293;51.464;-2.566;2023-03-01T02:45:56;1.07;;;0.97;;
10491;SDS011;5293;51.464;-2.566;2023-03-01T02:48:23;1.80;;;1.03;;
10491;SDS011;5293;51.464;-2.566;2023-03-01T02:56:09;0.97;;;0.80;;
10491;SDS011;5293;51.464;-2.566;2023-03-01T02:58:38;1.33;;;1.23;;
10491;SDS011;5293;51.464;-2.566;2023-03-01T03:01:13;1.70;;;1.20;;
10491;SDS011;5293;51.464;-2.566;2023-03-01T03:03:41;0.97;;;0.90;;
10491;SDS011;5293;51.464;-2.566;2023-03-01T03:06:07;1.40;;;1.23;;
10491;SDS011;5293;51.464;-2.566;2023-03-01T03:08:33;1.50;;;0.97;;
10491;SDS011;5293;51.464;-2.566;2023-03-01T03:10:58;1.27;;;1.17;;
10491;SDS011;5293;51.464;-2.566;2023-03-01T03:13:24;1.60;;;1.10;;
10491;SDS011;5293;51.464;-2.566;2023-03-01T03:15:53;1.20;;;1.10;;
10491;SDS011;5293;51.464;-2.566;2023-03-01T03:18:20;1.33;;;1.10;;
10491;SDS011;5293;51.464;-2.566;2023-03-01T03:20:47;2.60;;;1.20;;
10491;SDS011;5293;51.464;-2.566;2023-03-01T03:23:17;1.30;;;1.20;;
10491;SDS011;5293;51.464;-2.566;2023-03-01T03:25:44;2.77;;;1.10;;
10491;SDS011;5293;51.464;-2.566;2023-03-01T03:28:12;1.60;;;1.23;;
10491;SDS011;5293;51.464;-2.566;2023-03-01T03:30:39;1.60;;;1.30;;
10491;SDS011;5293;51.464;-2.566;2023-03-01T03:33:06;1.30;;;1.20;;
10491;SDS011;5293;51.464;-2.566;2023-03-01T03:35:34;1.40;;;1.30;;
10491;SDS011;5293;51.464;-2.566;2023-03-01T03:38:05;3.00;;;1.10;;
10491;SDS011;5293;51.464;-2.566;2023-03-01T03:40:40;2.10;;;1.20;;
10491;SDS011;5293;51.464;-2.566;2023-03-01T03:43:08;1.20;;;1.10;;
10491;SDS011;5293;51.464;-2.566;2023-03-01T03:45:36;1.53;;;1.13;;
10491;SDS011;5293;51.464;-2.566;2023-03-01T03:48:02;1.50;;;0.90;;
10491;SDS011;5293;51.464;-2.566;2023-03-01T03:50:30;0.97;;;0.80;;
10491;SDS011;5293;51.464;-2.566;2023-03-01T03:52:56;1.50;;;1.17;;
10491;SDS011;5293;51.464;-2.566;2023-03-01T03:55:22;1.77;;;1.07;;
10491;SDS011;5293;51.464;-2.566;2023-03-01T03:57:48;1.20;;;1.10;;
10491;SDS011;5293;51.464;-2.566;2023-03-01T04:00:19;1.83;;;1.10;;
10491;SDS011;5293;51.464;-2.566;2023-03-01T04:02:46;2.10;;;0.90;;
10491;SDS011;5293;51.464;-2.566;2023-03-01T04:05:13;0.90;;;0.77;;
10491;SDS011;5293;51.464;-2.566;2023-03-01T04:07:41;1.13;;;0.80;;
10491;SDS011;5293;51.464;-2.566;2023-03-01T04:10:08;1.47;;;0.90;;
10491;SDS011;5293;51.464;-2.566;2023-03-01T04:12:36;0.80;;;0.80;;
10491;SDS011;5293;51.464;-2.566;2023-03-01T04:15:02;2.50;;;0.90;;
10491;SDS011;5293;51.464;-2.566;2023-03-01T04:17:38;0.90;;;0.80;;
10491;SDS011;5293;51.464;-2.566;2023-03-01T04:20:04;1.43;;;0.87;;
10491;SDS011;5293;51.464;-2.566;2023-03-01T04:22:31;2.03;;;0.70;;
10491;SDS011;5293;51.464;-2.566;2023-03-01T04:24:58;2.67;;;0.80;;
10491;SDS011;5293;51.464;-2.566;2023-03-01T04:27:31;1.23;;;0.70;;
10491;SDS011;5293;51.464;-2.566;2023-03-01T04:30:00;1.13;;;0.77;;
10491;SDS011;5293;51.464;-2.566;2023-03-01T04:32:26;1.67;;;0.70;;
10491;SDS011;5293;51.464;-2.566;2023-03-01T04:34:51;0.60;;;0.60;;
10491;SDS011;5293;51.464;-2.566;2023-03-01T04:37:17;0.70;;;0.70;;
10491;SDS011;5293;51.464;-2.566;2023-03-01T04:39:43;0.70;;;0.70;;
10491;SDS011;5293;51.464;-2.566;2023-03-01T04:42:10;1.90;;;0.90;;
10491;SDS011;5293;51.464;-2.566;2023-03-01T04:44:36;2.93;;;0.90;;
10491;SDS011;5293;51.464;-2.566;2023-03-01T04:47:02;1.70;;;0.90;;
10491;SDS011;5293;51.464;-2.566;2023-03-01T04:49:28;0.67;;;0.67;;
10491;SDS011;5293;51.464;-2.566;2023-03-01T04:51:54;0.97;;;0.97;;
10491;SDS011;5293;51.464;-2.566;2023-03-01T04:54:21;1.33;;;0.90;;
10491;SDS011;5293;51.464;-2.566;2023-03-01T04:56:46;1.13;;;1.00;;
10491;SDS011;5293;51.464;-2.566;2023-03-01T04:59:12;1.00;;;0.93;;
10491;SDS011;5293;51.464;-2.566;2023-03-01T05:01:38;1.80;;;1.00;;
10491;SDS011;5293;51.464;-2.566;2023-03-01T05:04:03;4.70;;;1.20;;
10491;SDS011;5293;51.464;-2.566;2023-03-01T05:06:30;1.33;;;1.03;;
10491;SDS011;5293;51.464;-2.566;2023-03-01T05:08:56;0.90;;;0.90;;
10491;SDS011;5293;51.464;-2.566;2023-03-01T05:11:22;0.80;;;0.80;;
10491;SDS011;5293;51.464;-2.566;2023-03-01T05:13:48;0.80;;;0.80;;
10491;SDS011;5293;51.464;-2.566;2023-03-01T05:16:19;1.70;;;1.17;;
10491;SDS011;5293;51.464;-2.566;2023-03-01T05:18:45;1.47;;;1.27;;
10491;SDS011;5293;51.464;-2.566;2023-03-01T05:21:12;1.33;;;1.03;;
10491;SDS011;5293;51.464;-2.566;2023-03-01T05:23:42;1.17;;;1.17;;
10491;SDS011;5293;51.464;-2.566;2023-03-01T05:26:08;1.90;;;1.80;;
10491;SDS011;5293;51.464;-2.566;2023-03-01T05:28:34;1.90;;;1.70;;
10491;SDS011;5293;51.464;-2.566;2023-03-01T05:31:00;2.67;;;2.00;;
10491;SDS011;5293;51.464;-2.566;2023-03-01T05:33:26;3.00;;;2.40;;
10491;SDS011;5293;51.464;-2.566;2023-03-01T05:35:52;3.83;;;2.47;;
10491;SDS011;5293;51.464;-2.566;2023-03-01T05:38:18;3.93;;;2.60;;
10491;SDS011;5293;51.464;-2.566;2023-03-01T05:40:46;5.00;;;2.77;;
10491;SDS011;5293;51.464;-2.566;2023-03-01T05:43:13;2.47;;;2.10;;
10491;SDS011;5293;51.464;-2.566;2023-03-01T05:45:41;7.73;;;2.90;;
10491;SDS011;5293;51.464;-2.566;2023-03-01T05:48:07;3.97;;;3.00;;
10491;SDS011;5293;51.464;-2.566;2023-03-01T05:50:38;4.50;;;2.80;;
10491;SDS011;5293;51.464;-2.566;2023-03-01T05:53:07;6.77;;;3.53;;
10491;SDS011;5293;51.464;-2.566;2023-03-01T05:55:36;8.67;;;3.00;;
10491;SDS011;5293;51.464;-2.566;2023-03-01T05:58:02;2.87;;;2.30;;
10491;SDS011;5293;51.464;-2.566;2023-03-01T06:00:30;2.60;;;2.40;;
10491;SDS011;5293;51.464;-2.566;2023-03-01T06:02:57;4.13;;;2.63;;
10491;SDS011;5293;51.464;-2.566;2023-03-01T06:05:23;3.07;;;2.33;;
10491;SDS011;5293;51.464;-2.566;2023-03-01T06:07:49;3.57;;;2.60;;
10491;SDS011;5293;51.464;-2.566;2023-03-01T06:10:15;2.40;;;2.20;;
10491;SDS011;5293;51.464;-2.566;2023-03-01T06:12:42;2.60;;;2.20;;
10491;SDS011;5293;51.464;-2.566;2023-03-01T06:15:09;2.50;;;2.30;;
10491;SDS011;5293;51.464;-2.566;2023-03-01T06:17:37;2.60;;;1.83;;
10491;SDS011;5293;51.464;-2.566;2023-03-01T06:20:09;2.23;;;2.13;;
10491;SDS011;5293;51.464;-2.566;2023-03-01T06:22:37;1.90;;;1.67;;
10491;SDS011;5293;51.464;-2.566;2023-03-01T06:25:03;2.57;;;2.37;;
10491;SDS011;5293;51.464;-2.566;2023-03-01T06:27:30;1.77;;;1.67;;
10491;SDS011;5293;51.464;-2.566;2023-03-01T06:29:55;3.53;;;1.83;;
10491;SDS011;5293;51.464;-2.566;2023-03-01T06:32:21;3.77;;;3.20;;
10491;SDS011;5293;51.464;-2.566;2023-03-01T06:34:47;34.97;;;9.00;;
10491;SDS011;5293;51.464;-2.566;2023-03-01T06:37:14;3.07;;;2.77;;
10491;SDS011;5293;51.464;-2.566;2023-03-01T06:39:39;3.07;;;2.77;;
10491;SDS011;5293;51.464;-2.566;2023-03-01T06:42:07;2.70;;;2.50;;
10491;SDS011;5293;51.464;-2.566;2023-03-01T06:44:33;5.47;;;3.70;;
10491;SDS011;5293;51.464;-2.566;2023-03-01T06:46:59;3.43;;;3.00;;
10491;SDS011;5293;51.464;-2.566;2023-03-01T06:49:24;4.23;;;3.30;;
10491;SDS011;5293;51.464;-2.566;2023-03-01T06:51:50;4.83;;;3.30;;
10491;SDS011;5293;51.464;-2.566;2023-03-01T06:54:15;5.20;;;3.23;;
10491;SDS011;5293;51.464;-2.566;2023-03-01T06:56:42;4.70;;;3.27;;
10491;SDS011;5293;51.464;-2.566;2023-03-01T06:59:11;8.57;;;3.47;;
10491;SDS011;5293;51.464;-2.566;2023-03-01T07:01:37;4.23;;;3.00;;
10491;SDS011;5293;51.464;-2.566;2023-03-01T07:04:03;7.03;;;3.30;;
10491;SDS011;5293;51.464;-2.566;2023-03-01T07:06:29;3.23;;;2.83;;
10491;SDS011;5293;51.464;-2.566;2023-03-01T07:08:55;4.83;;;3.10;;
10491;SDS011;5293;51.464;-2.566;2023-03-01T07:11:20;6.00;;;3.30;;
10491;SDS011;5293;51.464;-2.566;2023-03-01T07:13:47;4.40;;;3.20;;
10491;SDS011;5293;51.464;-2.566;2023-03-01T07:16:13;4.63;;;2.60;;
10491;SDS011;5293;51.464;-2.566;2023-03-01T07:18:39;3.40;;;2.70;;
10491;SDS011;5293;51.464;-2.566;2023-03-01T07:21:09;4.67;;;2.97;;
10491;SDS011;5293;51.464;-2.566;2023-03-01T07:23:38;3.20;;;2.90;;
10491;SDS011;5293;51.464;-2.566;2023-03-01T07:26:04;4.87;;;2.83;;
10491;SDS011;5293;51.464;-2.566;2023-03-01T07:28:30;3.10;;;2.70;;
10491;SDS011;5293;51.464;-2.566;2023-03-01T07:31:00;5.67;;;2.97;;
10491;SDS011;5293;51.464;-2.566;2023-03-01T07:33:26;4.87;;;2.77;;
10491;SDS011;5293;51.464;-2.566;2023-03-01T07:36:10;2.87;;;2.40;;
10491;SDS011;5293;51.464;-2.566;2023-03-01T07:38:36;3.93;;;2.63;;
10491;SDS011;5293;51.464;-2.566;2023-03-01T07:41:03;6.07;;;2.73;;
10491;SDS011;5293;51.464;-2.566;2023-03-01T07:43:30;4.53;;;2.70;;
10491;SDS011;5293;51.464;-2.566;2023-03-01T07:45:59;4.20;;;2.10;;
10491;SDS011;5293;51.464;-2.566;2023-03-01T07:48:26;4.17;;;2.20;;
10491;SDS011;5293;51.464;-2.566;2023-03-01T07:50:52;4.27;;;1.87;;
10491;SDS011;5293;51.464;-2.566;2023-03-01T07:53:18;2.97;;;1.90;;
10491;SDS011;5293;51.464;-2.566;2023-03-01T07:55:43;2.33;;;1.90;;
10491;SDS011;5293;51.464;-2.566;2023-03-01T07:58:09;3.87;;;2.07;;
10491;SDS011;5293;51.464;-2.566;2023-03-01T08:00:34;1.87;;;1.70;;
10491;SDS011;5293;51.464;-2.566;2023-03-01T08:03:00;3.07;;;1.93;;
10491;SDS011;5293;51.464;-2.566;2023-03-01T08:05:26;1.40;;;1.30;;
10491;SDS011;5293;51.464;-2.566;2023-03-01T08:07:53;2.63;;;1.40;;
10491;SDS011;5293;51.464;-2.566;2023-03-01T08:10:19;2.13;;;1.00;;
10491;SDS011;5293;51.464;-2.566;2023-03-01T08:12:45;1.87;;;1.40;;
10491;SDS011;5293;51.464;-2.566;2023-03-01T08:15:10;3.80;;;1.43;;
10491;SDS011;5293;51.464;-2.566;2023-03-01T08:17:36;2.40;;;1.20;;
10491;SDS011;5293;51.464;-2.566;2023-03-01T08:20:02;1.47;;;1.30;;
10491;SDS011;5293;51.464;-2.566;2023-03-01T08:22:32;4.37;;;1.60;;
10491;SDS011;5293;51.464;-2.566;2023-03-01T08:24:57;5.20;;;1.70;;
10491;SDS011;5293;51.464;-2.566;2023-03-01T08:27:23;3.13;;;1.60;;
10491;SDS011;5293;51.464;-2.566;2023-03-01T08:29:48;3.00;;;1.50;;
10491;SDS011;5293;51.464;-2.566;2023-03-01T08:32:14;2.70;;;1.60;;
10491;SDS011;5293;51.464;-2.566;2023-03-01T08:34:40;1.87;;;1.40;;
10491;SDS011;5293;51.464;-2.566;2023-03-01T08:37:06;2.03;;;1.33;;
10491;SDS011;5293;51.464;-2.566;2023-03-01T08:39:31;2.33;;;1.27;;
10491;SDS011;5293;51.464;-2.566;2023-03-01T08:41:57;2.53;;;1.30;;
10491;SDS011;5293;51.464;-2.566;2023-03-01T08:44:23;2.87;;;1.20;;
10491;SDS011;5293;51.464;-2.566;2023-03-01T08:46:49;1.93;;;1.00;;
10491;SDS011;5293;51.464;-2.566;2023-03-01T08:49:17;1.20;;;1.10;;
10491;SDS011;5293;51.464;-2.566;2023-03-01T08:51:44;1.87;;;1.10;;
10491;SDS011;5293;51.464;-2.566;2023-03-01T08:54:13;2.30;;;1.23;;
10491;SDS011;5293;51.464;-2.566;2023-03-01T08:56:40;2.07;;;1.50;;
10491;SDS011;5293;51.464;-2.566;2023-03-01T08:59:07;2.17;;;1.70;;
10491;SDS011;5293;51.464;-2.566;2023-03-01T09:01:34;2.87;;;1.80;;
10491;SDS011;5293;51.464;-2.566;2023-03-01T09:03:59;5.47;;;2.20;;
10491;SDS011;5293;51.464;-2.566;2023-03-01T09:06:25;4.93;;;2.27;;
10491;SDS011;5293;51.464;-2.566;2023-03-01T09:08:51;3.13;;;2.20;;
10491;SDS011;5293;51.464;-2.566;2023-03-01T09:11:18;3.77;;;2.40;;
10491;SDS011;5293;51.464;-2.566;2023-03-01T09:13:46;3.73;;;2.30;;
10491;SDS011;5293;51.464;-2.566;2023-03-01T09:16:13;5.40;;;2.40;;
10491;SDS011;5293;51.464;-2.566;2023-03-01T09:18:40;5.43;;;2.33;;
10491;SDS011;5293;51.464;-2.566;2023-03-01T09:21:07;5.57;;;3.17;;
10491;SDS011;5293;51.464;-2.566;2023-03-01T09:23:34;3.17;;;2.03;;
10491;SDS011;5293;51.464;-2.566;2023-03-01T09:26:23;4.67;;;2.60;;
10491;SDS011;5293;51.464;-2.566;2023-03-01T09:28:50;2.97;;;2.50;;
10491;SDS011;5293;51.464;-2.566;2023-03-01T09:31:18;5.57;;;2.10;;
10491;SDS011;5293;51.464;-2.566;2023-03-01T09:33:48;4.97;;;2.33;;
10491;SDS011;5293;51.464;-2.566;2023-03-01T09:36:16;3.00;;;2.03;;
10491;SDS011;5293;51.464;-2.566;2023-03-01T09:38:44;2.83;;;2.23;;
10491;SDS011;5293;51.464;-2.566;2023-03-01T09:41:10;3.23;;;2.60;;
10491;SDS011;5293;51.464;-2.566;2023-03-01T09:46:58;3.07;;;2.37;;
10491;SDS011;5293;51.464;-2.566;2023-03-01T09:49:25;5.27;;;2.87;;
10491;SDS011;5293;51.464;-2.566;2023-03-01T09:52:02;2.93;;;2.40;;
10491;SDS011;5293;51.464;-2.566;2023-03-01T09:54:36;3.30;;;2.37;;
10491;SDS011;5293;51.464;-2.566;2023-03-01T09:57:23;5.90;;;2.87;;
10491;SDS011;5293;51.464;-2.566;2023-03-01T10:17:27;3.80;;;2.03;;
10491;SDS011;5293;51.464;-2.566;2023-03-01T10:20:09;2.63;;;2.03;;
10491;SDS011;5293;51.464;-2.566;2023-03-01T10:22:50;3.43;;;2.27;;
10491;SDS011;5293;51.464;-2.566;2023-03-01T10:28:10;3.13;;;1.50;;
10491;SDS011;5293;51.464;-2.566;2023-03-01T10:31:00;2.70;;;1.50;;
10491;SDS011;5293;51.464;-2.566;2023-03-01T10:33:27;1.40;;;1.30;;
10491;SDS011;5293;51.464;-2.566;2023-03-01T10:35:57;3.03;;;1.20;;
10491;SDS011;5293;51.464;-2.566;2023-03-01T10:38:22;2.83;;;1.30;;
10491;SDS011;5293;51.464;-2.566;2023-03-01T10:43:30;1.97;;;1.40;;
10491;SDS011;5293;51.464;-2.566;2023-03-01T10:46:40;1.87;;;1.30;;
10491;SDS011;5293;51.464;-2.566;2023-03-01T10:49:14;1.03;;;1.03;;
10491;SDS011;5293;51.464;-2.566;2023-03-01T10:51:48;1.73;;;1.63;;
10491;SDS011;5293;51.464;-2.566;2023-03-01T10:56:56;1.70;;;1.50;;
10491;SDS011;5293;51.464;-2.566;2023-03-01T10:59:34;1.30;;;1.20;;
10491;SDS011;5293;51.464;-2.566;2023-03-01T11:02:43;1.23;;;1.13;;
10491;SDS011;5293;51.464;-2.566;2023-03-01T11:05:02;1.43;;;1.33;;
10491;SDS011;5293;51.464;-2.566;2023-03-01T11:07:50;2.43;;;2.23;;
10491;SDS011;5293;51.464;-2.566;2023-03-01T11:10:28;2.40;;;1.40;;
10491;SDS011;5293;51.464;-2.566;2023-03-01T11:16:01;2.23;;;2.00;;
10491;SDS011;5293;51.464;-2.566;2023-03-01T11:18:30;2.43;;;1.63;;
10491;SDS011;5293;51.464;-2.566;2023-03-01T11:20:56;1.60;;;1.50;;
10491;SDS011;5293;51.464;-2.566;2023-03-01T11:23:25;1.87;;;1.70;;
10491;SDS011;5293;51.464;-2.566;2023-03-01T11:25:56;3.13;;;2.13;;
10491;SDS011;5293;51.464;-2.566;2023-03-01T11:28:24;2.70;;;1.90;;
10491;SDS011;5293;51.464;-2.566;2023-03-01T11:30:58;3.13;;;1.83;;
10491;SDS011;5293;51.464;-2.566;2023-03-01T11:33:44;2.23;;;2.03;;
10491;SDS011;5293;51.464;-2.566;2023-03-01T11:36:40;2.40;;;2.00;;
10491;SDS011;5293;51.464;-2.566;2023-03-01T11:42:10;3.90;;;1.60;;
10491;SDS011;5293;51.464;-2.566;2023-03-01T11:45:09;2.80;;;1.80;;
10491;SDS011;5293;51.464;-2.566;2023-03-01T11:50:45;2.13;;;1.83;;
10491;SDS011;5293;51.464;-2.566;2023-03-01T11:55:54;1.50;;;1.40;;
10491;SDS011;5293;51.464;-2.566;2023-03-01T11:58:40;2.00;;;1.83;;
10491;SDS011;5293;51.464;-2.566;2023-03-01T12:10:23;3.67;;;1.93;;
10491;SDS011;5293;51.464;-2.566;2023-03-01T12:13:03;3.57;;;1.57;;
10491;SDS011;5293;51.464;-2.566;2023-03-01T12:24:08;6.30;;;2.27;;
10491;SDS011;5293;51.464;-2.566;2023-03-01T12:29:53;5.27;;;3.30;;
10491;SDS011;5293;51.464;-2.566;2023-03-01T12:32:34;5.40;;;3.17;;
10491;SDS011;5293;51.464;-2.566;2023-03-01T12:38:52;2.63;;;2.27;;
10491;SDS011;5293;51.464;-2.566;2023-03-01T12:41:40;3.60;;;2.70;;
10491;SDS011;5293;51.464;-2.566;2023-03-01T12:47:07;2.77;;;2.30;;
10491;SDS011;5293;51.464;-2.566;2023-03-01T12:49:48;3.10;;;2.57;;
10491;SDS011;5293;51.464;-2.566;2023-03-01T12:52:39;7.37;;;3.00;;
10491;SDS011;5293;51.464;-2.566;2023-03-01T12:58:41;3.23;;;2.40;;
10491;SDS011;5293;51.464;-2.566;2023-03-01T13:12:01;4.00;;;3.20;;
10491;SDS011;5293;51.464;-2.566;2023-03-01T13:17:02;4.73;;;3.13;;
10491;SDS011;5293;51.464;-2.566;2023-03-01T13:19:28;4.77;;;3.30;;
10491;SDS011;5293;51.464;-2.566;2023-03-01T13:21:55;4.83;;;3.47;;
10491;SDS011;5293;51.464;-2.566;2023-03-01T13:24:34;5.67;;;3.60;;
10491;SDS011;5293;51.464;-2.566;2023-03-01T13:29:48;5.20;;;3.53;;
10491;SDS011;5293;51.464;-2.566;2023-03-01T13:37:41;4.80;;;2.83;;
10491;SDS011;5293;51.464;-2.566;2023-03-01T13:42:46;3.30;;;2.70;;
10491;SDS011;5293;51.464;-2.566;2023-03-01T13:45:17;5.53;;;2.97;;
10491;SDS011;5293;51.464;-2.566;2023-03-01T13:48:00;5.50;;;2.87;;
10491;SDS011;5293;51.464;-2.566;2023-03-01T13:50:32;2.90;;;2.70;;
10491;SDS011;5293;51.464;-2.566;2023-03-01T13:53:03;4.60;;;3.10;;
10491;SDS011;5293;51.464;-2.566;2023-03-01T13:55:41;4.03;;;3.40;;
10491;SDS011;5293;51.464;-2.566;2023-03-01T13:58:26;3.43;;;2.80;;
10491;SDS011;5293;51.464;-2.566;2023-03-01T14:01:01;4.10;;;2.80;;
10491;SDS011;5293;51.464;-2.566;2023-03-01T14:03:32;3.00;;;2.70;;
10491;SDS011;5293;51.464;-2.566;2023-03-01T14:06:00;3.47;;;2.53;;
10491;SDS011;5293;51.464;-2.566;2023-03-01T14:08:31;2.90;;;2.63;;
10491;SDS011;5293;51.464;-2.566;2023-03-01T14:11:01;3.27;;;2.97;;
10491;SDS011;5293;51.464;-2.566;2023-03-01T14:19:30;3.63;;;2.30;;
10491;SDS011;5293;51.464;-2.566;2023-03-01T14:22:12;3.40;;;2.50;;
10491;SDS011;5293;51.464;-2.566;2023-03-01T14:24:50;3.47;;;2.17;;
10491;SDS011;5293;51.464;-2.566;2023-03-01T14:27:17;2.90;;;2.67;;
10491;SDS011;5293;51.464;-2.566;2023-03-01T14:29:43;4.33;;;2.47;;
10491;SDS011;5293;51.464;-2.566;2023-03-01T14:32:20;2.93;;;2.73;;
10491;SDS011;5293;51.464;-2.566;2023-03-01T14:34:49;4.97;;;2.50;;
10491;SDS011;5293;51.464;-2.566;2023-03-01T14:37:30;3.47;;;2.33;;
10491;SDS011;5293;51.464;-2.566;2023-03-01T14:40:00;5.80;;;2.43;;
10491;SDS011;5293;51.464;-2.566;2023-03-01T14:42:34;3.10;;;2.60;;
10491;SDS011;5293;51.464;-2.566;2023-03-01T14:45:00;6.93;;;2.80;;
10491;SDS011;5293;51.464;-2.566;2023-03-01T14:47:32;3.80;;;3.50;;
10491;SDS011;5293;51.464;-2.566;2023-03-01T14:50:15;6.57;;;3.17;;
10491;SDS011;5293;51.464;-2.566;2023-03-01T14:52:56;5.93;;;3.00;;
10491;SDS011;5293;51.464;-2.566;2023-03-01T14:55:25;3.63;;;2.73;;
10491;SDS011;5293;51.464;-2.566;2023-03-01T14:57:55;5.13;;;2.73;;
10491;SDS011;5293;51.464;-2.566;2023-03-01T15:00:26;5.37;;;2.40;;
10491;SDS011;5293;51.464;-2.566;2023-03-01T15:02:55;2.73;;;2.20;;
10491;SDS011;5293;51.464;-2.566;2023-03-01T15:05:26;2.58;;;1.98;;
10491;SDS011;5293;51.464;-2.566;2023-03-01T15:07:57;3.45;;;2.10;;
10491;SDS011;5293;51.464;-2.566;2023-03-01T15:10:30;2.80;;;2.23;;
10491;SDS011;5293;51.464;-2.566;2023-03-01T15:18:32;5.30;;;2.13;;
10491;SDS011;5293;51.464;-2.566;2023-03-01T15:21:09;2.00;;;1.87;;
10491;SDS011;5293;51.464;-2.566;2023-03-01T15:23:51;7.13;;;2.40;;
10491;SDS011;5293;51.464;-2.566;2023-03-01T15:26:30;3.70;;;2.10;;
10491;SDS011;5293;51.464;-2.566;2023-03-01T15:29:02;2.17;;;1.97;;
10491;SDS011;5293;51.464;-2.566;2023-03-01T15:31:32;2.23;;;1.80;;
10491;SDS011;5293;51.464;-2.566;2023-03-01T15:34:07;3.63;;;2.20;;
10491;SDS011;5293;51.464;-2.566;2023-03-01T15:36:44;3.67;;;2.20;;
10491;SDS011;5293;51.464;-2.566;2023-03-01T15:41:52;2.27;;;2.07;;
10491;SDS011;5293;51.464;-2.566;2023-03-01T15:44:31;3.03;;;2.10;;
10491;SDS011;5293;51.464;-2.566;2023-03-01T15:46:59;3.03;;;2.10;;
10491;SDS011;5293;51.464;-2.566;2023-03-01T15:52:13;2.63;;;2.20;;
10491;SDS011;5293;51.464;-2.566;2023-03-01T15:54:57;3.73;;;2.13;;
10491;SDS011;5293;51.464;-2.566;2023-03-01T15:57:30;4.10;;;2.00;;
10491;SDS011;5293;51.464;-2.566;2023-03-01T15:59:56;2.27;;;2.00;;
10491;SDS011;5293;51.464;-2.566;2023-03-01T16:02:22;3.23;;;1.80;;
10491;SDS011;5293;51.464;-2.566;2023-03-01T16:04:49;3.30;;;2.00;;
10491;SDS011;5293;51.464;-2.566;2023-03-01T16:07:15;3.10;;;1.97;;
10491;SDS011;5293;51.464;-2.566;2023-03-01T16:09:41;3.53;;;1.90;;
10491;SDS011;5293;51.464;-2.566;2023-03-01T16:12:12;6.33;;;2.13;;
10491;SDS011;5293;51.464;-2.566;2023-03-01T16:14:40;3.93;;;2.60;;
10491;SDS011;5293;51.464;-2.566;2023-03-01T16:17:06;4.47;;;3.47;;
10491;SDS011;5293;51.464;-2.566;2023-03-01T16:19:34;5.93;;;3.80;;
10491;SDS011;5293;51.464;-2.566;2023-03-01T16:22:02;5.10;;;2.77;;
10491;SDS011;5293;51.464;-2.566;2023-03-01T16:24:28;4.07;;;3.23;;
10491;SDS011;5293;51.464;-2.566;2023-03-01T16:26:53;11.37;;;4.83;;
10491;SDS011;5293;51.464;-2.566;2023-03-01T16:29:19;6.23;;;4.70;;
10491;SDS011;5293;51.464;-2.566;2023-03-01T16:31:45;8.87;;;4.90;;
10491;SDS011;5293;51.464;-2.566;2023-03-01T16:34:11;4.83;;;4.27;;
10491;SDS011;5293;51.464;-2.566;2023-03-01T16:36:37;8.90;;;5.43;;
10491;SDS011;5293;51.464;-2.566;2023-03-01T16:39:03;7.67;;;3.70;;
10491;SDS011;5293;51.464;-2.566;2023-03-01T16:41:29;8.93;;;5.10;;
10491;SDS011;5293;51.464;-2.566;2023-03-01T16:43:55;12.73;;;4.23;;
10491;SDS011;5293;51.464;-2.566;2023-03-01T16:46:22;8.97;;;4.07;;
10491;SDS011;5293;51.464;-2.566;2023-03-01T16:48:50;4.93;;;3.50;;
10491;SDS011;5293;51.464;-2.566;2023-03-01T16:51:16;4.43;;;3.20;;
10491;SDS011;5293;51.464;-2.566;2023-03-01T16:53:42;8.43;;;3.77;;
10491;SDS011;5293;51.464;-2.566;2023-03-01T16:56:08;5.80;;;3.40;;
10491;SDS011;5293;51.464;-2.566;2023-03-01T16:58:35;6.97;;;4.03;;
10491;SDS011;5293;51.464;-2.566;2023-03-01T17:01:09;5.77;;;3.40;;
10491;SDS011;5293;51.464;-2.566;2023-03-01T17:03:40;8.87;;;4.20;;
10491;SDS011;5293;51.464;-2.566;2023-03-01T17:06:08;4.73;;;3.10;;
10491;SDS011;5293;51.464;-2.566;2023-03-01T17:08:37;4.57;;;3.97;;